Weather at El Fasher Airport

Public forecast

Using degrees Celsius for public forecast. Weather courtesy of forecast.io.

Closest aviation weather report (METAR) to El Fasher Airport

Report is more than 2 hours old.

Closest report is Abeche Airport, 261.7 nm (484.6 km) W.

2024/07/12 08:00 (retrieved 3 hours ago)

FTTC 120800Z 18006KT 9999 FEW030 OVC150 27/// Q////

Closest aviation forecast (TAF) to El Fasher Airport

Closest forecast is N'Djamena International Airport, 608.8 nm (1,127.5 km) W.

2024/07/12 06:24 (retrieved 5 hours ago)

TAF TAF FTTJ 120500Z 1206/1312 22006KT 7000 SCT030 PROB40 TEMPO 1214/1220 2000 TSRA